sensor_id;sensor_type;location;lat;lon;timestamp;pressure;altitude;pressure_sealevel;temperature;humidity
60319;BME280;46163;52.306;5.634;2023-03-26T00:00:34;100554.28;;;16.33;59.14
60319;BME280;46163;52.306;5.634;2023-03-26T00:03:00;100541.25;;;16.25;59.43
60319;BME280;46163;52.306;5.634;2023-03-26T00:05:25;100549.38;;;16.30;59.27
60319;BME280;46163;52.306;5.634;2023-03-26T00:07:50;100538.31;;;16.27;59.43
60319;BME280;46163;52.306;5.634;2023-03-26T00:10:16;100544.16;;;16.24;59.40
60319;BME280;46163;52.306;5.634;2023-03-26T00:12:41;100542.28;;;16.24;59.46
60319;BME280;46163;52.306;5.634;2023-03-26T00:15:07;100546.28;;;16.22;59.49
60319;BME280;46163;52.306;5.634;2023-03-26T00:17:35;100544.41;;;16.22;59.40
60319;BME280;46163;52.306;5.634;2023-03-26T00:20:00;100550.28;;;16.19;59.36
60319;BME280;46163;52.306;5.634;2023-03-26T00:22:26;100543.28;;;16.18;59.33
60319;BME280;46163;52.306;5.634;2023-03-26T00:24:51;100550.53;;;16.18;59.19
60319;BME280;46163;52.306;5.634;2023-03-26T00:27:16;100541.31;;;16.14;59.21
60319;BME280;46163;52.306;5.634;2023-03-26T00:29:42;100540.50;;;16.13;59.15
60319;BME280;46163;52.306;5.634;2023-03-26T00:32:08;100535.38;;;16.11;59.15
60319;BME280;46163;52.306;5.634;2023-03-26T00:34:33;100536.19;;;16.12;59.03
60319;BME280;46163;52.306;5.634;2023-03-26T00:36:59;100524.34;;;16.08;59.13
60319;BME280;46163;52.306;5.634;2023-03-26T00:39:27;100521.16;;;16.11;59.16
60319;BME280;46163;52.306;5.634;2023-03-26T00:41:54;100519.78;;;16.08;58.99
60319;BME280;46163;52.306;5.634;2023-03-26T00:44:20;100527.03;;;16.08;59.09
60319;BME280;46163;52.306;5.634;2023-03-26T00:46:46;100520.25;;;16.05;58.98
60319;BME280;46163;52.306;5.634;2023-03-26T00:49:11;100521.88;;;16.06;58.97
60319;BME280;46163;52.306;5.634;2023-03-26T00:51:39;100520.50;;;16.04;58.93
60319;BME280;46163;52.306;5.634;2023-03-26T00:54:06;100521.31;;;16.04;58.97
60319;BME280;46163;52.306;5.634;2023-03-26T00:56:35;100521.56;;;16.03;59.10
60319;BME280;46163;52.306;5.634;2023-03-26T00:59:01;100523.69;;;16.01;59.08
60319;BME280;46163;52.306;5.634;2023-03-26T01:01:29;100517.50;;;16.00;59.05
60319;BME280;46163;52.306;5.634;2023-03-26T01:03:58;100516.69;;;16.00;59.02
60319;BME280;46163;52.306;5.634;2023-03-26T01:06:42;100510.16;;;15.96;59.00
60319;BME280;46163;52.306;5.634;2023-03-26T01:09:17;100510.72;;;15.98;58.95
60319;BME280;46163;52.306;5.634;2023-03-26T01:11:45;100511.78;;;15.97;58.98
60319;BME280;46163;52.306;5.634;2023-03-26T01:14:22;100508.53;;;15.95;58.92
60319;BME280;46163;52.306;5.634;2023-03-26T01:16:57;100497.81;;;15.95;58.86
60319;BME280;46163;52.306;5.634;2023-03-26T01:21:58;100497.25;;;15.93;59.12
60319;BME280;46163;52.306;5.634;2023-03-26T01:24:25;100492.94;;;15.92;58.90
60319;BME280;46163;52.306;5.634;2023-03-26T01:29:42;100492.34;;;15.90;58.69
60319;BME280;46163;52.306;5.634;2023-03-26T01:32:22;100492.59;;;15.88;58.82
60319;BME280;46163;52.306;5.634;2023-03-26T01:35:12;100478.63;;;15.86;58.84
60319;BME280;46163;52.306;5.634;2023-03-26T01:37:54;100479.91;;;15.83;59.20
60319;BME280;46163;52.306;5.634;2023-03-26T01:40:34;100483.41;;;15.84;58.93
60319;BME280;46163;52.306;5.634;2023-03-26T01:46:05;100462.19;;;15.82;58.80
60319;BME280;46163;52.306;5.634;2023-03-26T01:48:40;100465.09;;;15.81;58.84
60319;BME280;46163;52.306;5.634;2023-03-26T01:51:07;100465.94;;;15.81;58.79
60319;BME280;46163;52.306;5.634;2023-03-26T01:53:36;100451.94;;;15.79;58.85
60319;BME280;46163;52.306;5.634;2023-03-26T02:01:59;100433.09;;;15.74;58.78
60319;BME280;46163;52.306;5.634;2023-03-26T02:08:04;100426.09;;;15.73;58.70
60319;BME280;46163;52.306;5.634;2023-03-26T02:10:29;100422.81;;;15.71;58.77
60319;BME280;46163;52.306;5.634;2023-03-26T02:12:56;100422.03;;;15.71;58.78
60319;BME280;46163;52.306;5.634;2023-03-26T02:15:23;100415.53;;;15.67;58.71
60319;BME280;46163;52.306;5.634;2023-03-26T02:17:49;100416.91;;;15.69;58.77
60319;BME280;46163;52.306;5.634;2023-03-26T02:20:17;100402.69;;;15.69;58.78
60319;BME280;46163;52.306;5.634;2023-03-26T02:22:44;100398.53;;;15.61;58.58
60319;BME280;46163;52.306;5.634;2023-03-26T02:25:15;100410.16;;;15.67;58.56
60319;BME280;46163;52.306;5.634;2023-03-26T02:27:42;100399.69;;;15.65;58.60
60319;BME280;46163;52.306;5.634;2023-03-26T02:30:10;100400.75;;;15.64;58.69
60319;BME280;46163;52.306;5.634;2023-03-26T02:32:36;100394.56;;;15.64;58.58
60319;BME280;46163;52.306;5.634;2023-03-26T02:35:05;100395.59;;;15.63;58.80
60319;BME280;46163;52.306;5.634;2023-03-26T02:37:31;100395.84;;;15.61;58.77
60319;BME280;46163;52.306;5.634;2023-03-26T02:39:59;100398.75;;;15.60;58.74
60319;BME280;46163;52.306;5.634;2023-03-26T02:42:24;100396.31;;;15.58;58.72
60319;BME280;46163;52.306;5.634;2023-03-26T02:44:50;100385.03;;;15.56;58.70
60319;BME280;46163;52.306;5.634;2023-03-26T02:47:16;100388.53;;;15.57;58.71
60319;BME280;46163;52.306;5.634;2023-03-26T02:49:41;100393.88;;;15.57;58.52
60319;BME280;46163;52.306;5.634;2023-03-26T02:52:07;100389.25;;;15.52;58.58
60319;BME280;46163;52.306;5.634;2023-03-26T02:54:33;100386.09;;;15.55;58.66
60319;BME280;46163;52.306;5.634;2023-03-26T02:56:59;100381.75;;;15.54;58.48
60319;BME280;46163;52.306;5.634;2023-03-26T02:59:25;100372.91;;;15.53;58.64
60319;BME280;46163;52.306;5.634;2023-03-26T03:01:51;100369.41;;;15.53;58.65
60319;BME280;46163;52.306;5.634;2023-03-26T03:04:16;100371.78;;;15.49;58.46
60319;BME280;46163;52.306;5.634;2023-03-26T03:06:42;100374.19;;;15.51;58.59
60319;BME280;46163;52.306;5.634;2023-03-26T03:09:09;100364.53;;;15.50;58.43
60319;BME280;46163;52.306;5.634;2023-03-26T03:11:36;100361.53;;;15.46;58.54
60319;BME280;46163;52.306;5.634;2023-03-26T03:14:04;100363.16;;;15.47;58.49
60319;BME280;46163;52.306;5.634;2023-03-26T03:16:30;100363.72;;;15.49;58.56
60319;BME280;46163;52.306;5.634;2023-03-26T03:18:58;100365.59;;;15.49;58.57
60319;BME280;46163;52.306;5.634;2023-03-26T03:21:27;100364.22;;;15.46;58.50
60319;BME280;46163;52.306;5.634;2023-03-26T03:23:56;100367.72;;;15.47;58.50
60319;BME280;46163;52.306;5.634;2023-03-26T03:26:23;100365.25;;;15.45;58.35
60319;BME280;46163;52.306;5.634;2023-03-26T03:28:54;100359.69;;;15.47;58.53
60319;BME280;46163;52.306;5.634;2023-03-26T03:31:23;100360.69;;;15.46;58.51
60319;BME280;46163;52.306;5.634;2023-03-26T03:33:52;100355.34;;;15.46;58.66
60319;BME280;46163;52.306;5.634;2023-03-26T03:36:20;100351.84;;;15.45;58.59
60319;BME280;46163;52.306;5.634;2023-03-26T03:38:52;100349.97;;;15.46;58.57
60319;BME280;46163;52.306;5.634;2023-03-26T03:41:17;100348.13;;;15.46;58.26
60319;BME280;46163;52.306;5.634;2023-03-26T03:43:44;100343.59;;;15.47;58.38
60319;BME280;46163;52.306;5.634;2023-03-26T03:46:10;100338.44;;;15.45;58.43
60319;BME280;46163;52.306;5.634;2023-03-26T03:48:35;100338.28;;;15.52;58.31
60319;BME280;46163;52.306;5.634;2023-03-26T03:51:03;100333.34;;;15.61;58.29
60319;BME280;46163;52.306;5.634;2023-03-26T03:53:30;100331.56;;;15.66;57.94
60319;BME280;46163;52.306;5.634;2023-03-26T03:55:55;100312.09;;;15.59;57.85
60319;BME280;46163;52.306;5.634;2023-03-26T03:58:22;100329.09;;;15.81;57.79
60319;BME280;46163;52.306;5.634;2023-03-26T04:00:50;100329.16;;;15.87;57.52
60319;BME280;46163;52.306;5.634;2023-03-26T04:03:16;100330.34;;;15.96;57.50
60319;BME280;46163;52.306;5.634;2023-03-26T04:05:44;100326.16;;;16.05;57.32
60319;BME280;46163;52.306;5.634;2023-03-26T04:08:23;100332.19;;;16.12;57.18
60319;BME280;46163;52.306;5.634;2023-03-26T04:10:50;100321.25;;;16.19;57.11
60319;BME280;46163;52.306;5.634;2023-03-26T04:13:16;100323.50;;;16.27;57.03
60319;BME280;46163;52.306;5.634;2023-03-26T04:15:44;100323.31;;;16.33;56.51
60319;BME280;46163;52.306;5.634;2023-03-26T04:18:10;100321.22;;;16.40;56.74
60319;BME280;46163;52.306;5.634;2023-03-26T04:20:40;100323.47;;;16.49;56.31
60319;BME280;46163;52.306;5.634;2023-03-26T04:23:13;100324.66;;;16.58;56.11
60319;BME280;46163;52.306;5.634;2023-03-26T04:25:47;100325.25;;;16.65;55.94
60319;BME280;46163;52.306;5.634;2023-03-26T04:28:35;100322.97;;;16.74;55.92
60319;BME280;46163;52.306;5.634;2023-03-26T04:31:12;100311.47;;;16.78;55.57
60319;BME280;46163;52.306;5.634;2023-03-26T04:33:43;100304.03;;;16.85;55.38
60319;BME280;46163;52.306;5.634;2023-03-26T04:36:15;100304.03;;;16.90;55.23
60319;BME280;46163;52.306;5.634;2023-03-26T04:38:43;100298.47;;;16.97;55.36
60319;BME280;46163;52.306;5.634;2023-03-26T04:41:14;100297.69;;;17.02;55.03
60319;BME280;46163;52.306;5.634;2023-03-26T04:43:39;100287.25;;;17.05;54.93
60319;BME280;46163;52.306;5.634;2023-03-26T04:46:15;100280.28;;;17.09;54.76
60319;BME280;46163;52.306;5.634;2023-03-26T04:48:45;100274.09;;;17.09;54.64
60319;BME280;46163;52.306;5.634;2023-03-26T04:51:13;100274.41;;;17.17;54.56
60319;BME280;46163;52.306;5.634;2023-03-26T04:53:57;100269.34;;;17.21;54.57
60319;BME280;46163;52.306;5.634;2023-03-26T04:59:12;100253.78;;;17.28;54.70
60319;BME280;46163;52.306;5.634;2023-03-26T05:01:39;100242.00;;;17.29;54.33
60319;BME280;46163;52.306;5.634;2023-03-26T05:04:06;100236.06;;;17.32;54.06
60319;BME280;46163;52.306;5.634;2023-03-26T05:06:32;100240.13;;;17.35;54.13
60319;BME280;46163;52.306;5.634;2023-03-26T05:08:59;100230.72;;;17.37;54.10
60319;BME280;46163;52.306;5.634;2023-03-26T05:11:27;100238.56;;;17.39;54.31
60319;BME280;46163;52.306;5.634;2023-03-26T05:13:52;100245.81;;;17.43;54.26
60319;BME280;46163;52.306;5.634;2023-03-26T05:16:18;100252.00;;;17.44;53.96
60319;BME280;46163;52.306;5.634;2023-03-26T05:18:44;100252.56;;;17.46;53.99
60319;BME280;46163;52.306;5.634;2023-03-26T05:21:11;100245.88;;;17.48;53.90
60319;BME280;46163;52.306;5.634;2023-03-26T05:23:36;100242.91;;;17.50;54.04
60319;BME280;46163;52.306;5.634;2023-03-26T05:26:02;100225.91;;;17.44;53.92
60319;BME280;46163;52.306;5.634;2023-03-26T05:28:27;100248.34;;;17.55;53.64
60319;BME280;46163;52.306;5.634;2023-03-26T05:30:53;100248.06;;;17.57;53.94
60319;BME280;46163;52.306;5.634;2023-03-26T05:33:19;100232.69;;;17.52;53.55
60319;BME280;46163;52.306;5.634;2023-03-26T05:35:45;100228.44;;;17.61;53.61
60319;BME280;46163;52.306;5.634;2023-03-26T05:38:11;100227.94;;;17.64;53.63
60319;BME280;46163;52.306;5.634;2023-03-26T05:40:36;100221.47;;;17.65;53.41
60319;BME280;46163;52.306;5.634;2023-03-26T05:43:02;100225.50;;;17.68;53.80
60319;BME280;46163;52.306;5.634;2023-03-26T05:45:28;100222.56;;;17.69;53.38
60319;BME280;46163;52.306;5.634;2023-03-26T05:47:53;100222.31;;;17.71;53.40
60319;BME280;46163;52.306;5.634;2023-03-26T05:50:20;100217.75;;;17.71;53.70
60319;BME280;46163;52.306;5.634;2023-03-26T05:52:46;100222.06;;;17.72;53.33
60319;BME280;46163;52.306;5.634;2023-03-26T05:55:11;100212.66;;;17.75;53.34
60319;BME280;46163;52.306;5.634;2023-03-26T05:57:37;100214.28;;;17.76;53.51
60319;BME280;46163;52.306;5.634;2023-03-26T06:00:05;100214.00;;;17.77;53.25
60319;BME280;46163;52.306;5.634;2023-03-26T06:02:36;100215.34;;;17.80;53.39
60319;BME280;46163;52.306;5.634;2023-03-26T06:05:01;100208.09;;;17.80;53.24
60319;BME280;46163;52.306;5.634;2023-03-26T06:07:28;100201.66;;;17.82;53.28
60319;BME280;46163;52.306;5.634;2023-03-26T06:09:54;100202.19;;;17.84;53.29
60319;BME280;46163;52.306;5.634;2023-03-26T06:12:20;100201.94;;;17.85;53.02
60319;BME280;46163;52.306;5.634;2023-03-26T06:14:45;100199.22;;;17.85;53.14
60319;BME280;46163;52.306;5.634;2023-03-26T06:17:12;100195.47;;;17.86;53.20
60319;BME280;46163;52.306;5.634;2023-03-26T06:19:37;100189.28;;;17.86;53.17
60319;BME280;46163;52.306;5.634;2023-03-26T06:22:03;100197.09;;;17.87;53.16
60319;BME280;46163;52.306;5.634;2023-03-26T06:24:31;100191.44;;;17.89;52.95
60319;BME280;46163;52.306;5.634;2023-03-26T06:26:57;100186.03;;;17.89;53.16
60319;BME280;46163;52.306;5.634;2023-03-26T06:29:23;100183.13;;;17.90;52.97
60319;BME280;46163;52.306;5.634;2023-03-26T06:31:48;100182.03;;;17.91;52.88
60319;BME280;46163;52.306;5.634;2023-03-26T06:34:17;100184.72;;;17.91;53.16
60319;BME280;46163;52.306;5.634;2023-03-26T06:36:42;100182.56;;;17.93;52.89
60319;BME280;46163;52.306;5.634;2023-03-26T06:39:07;100178.25;;;17.92;53.25
60319;BME280;46163;52.306;5.634;2023-03-26T06:41:34;100170.97;;;17.88;52.95
60319;BME280;46163;52.306;5.634;2023-03-26T06:43:59;100167.50;;;17.92;52.94
60319;BME280;46163;52.306;5.634;2023-03-26T06:46:25;100167.22;;;17.94;52.94
60319;BME280;46163;52.306;5.634;2023-03-26T06:48:51;100176.66;;;17.96;53.08
60319;BME280;46163;52.306;5.634;2023-03-26T06:51:17;100166.41;;;17.93;52.92
60319;BME280;46163;52.306;5.634;2023-03-26T06:53:43;100163.19;;;17.96;52.84
60319;BME280;46163;52.306;5.634;2023-03-26T06:56:08;100160.75;;;17.95;52.75
60319;BME280;46163;52.306;5.634;2023-03-26T06:58:34;100163.19;;;17.96;53.03
60319;BME280;46163;52.306;5.634;2023-03-26T07:01:00;100171.84;;;17.98;52.86
60319;BME280;46163;52.306;5.634;2023-03-26T07:03:25;100166.44;;;17.98;52.86
60319;BME280;46163;52.306;5.634;2023-03-26T07:05:51;100164.00;;;17.97;52.98
60319;BME280;46163;52.306;5.634;2023-03-26T07:08:17;100159.41;;;17.97;53.19
60319;BME280;46163;52.306;5.634;2023-03-26T07:10:42;100166.44;;;17.98;52.90
60319;BME280;46163;52.306;5.634;2023-03-26T07:13:10;100168.06;;;17.99;52.86
60319;BME280;46163;52.306;5.634;2023-03-26T07:15:35;100151.88;;;17.94;52.99
60319;BME280;46163;52.306;5.634;2023-03-26T07:18:01;100166.19;;;18.00;52.92
60319;BME280;46163;52.306;5.634;2023-03-26T07:20:26;100162.13;;;17.97;52.57
60319;BME280;46163;52.306;5.634;2023-03-26T07:22:52;100153.50;;;17.95;52.81
60319;BME280;46163;52.306;5.634;2023-03-26T07:25:18;100161.06;;;18.03;53.10
60319;BME280;46163;52.306;5.634;2023-03-26T07:36:23;100161.31;;;18.02;52.97
60319;BME280;46163;52.306;5.634;2023-03-26T07:41:58;100158.38;;;18.03;53.03
60319;BME280;46163;52.306;5.634;2023-03-26T07:47:28;100152.72;;;18.00;53.41
60319;BME280;46163;52.306;5.634;2023-03-26T07:49:55;100159.72;;;18.01;53.49
60319;BME280;46163;52.306;5.634;2023-03-26T07:52:22;100149.22;;;17.99;53.30
60319;BME280;46163;52.306;5.634;2023-03-26T07:54:48;100148.13;;;18.00;53.56
60319;BME280;46163;52.306;5.634;2023-03-26T08:00:10;100150.00;;;17.95;53.34
60319;BME280;46163;52.306;5.634;2023-03-26T08:05:42;100144.31;;;17.81;53.84
60319;BME280;46163;52.306;5.634;2023-03-26T08:11:14;100149.72;;;17.86;53.81
60319;BME280;46163;52.306;5.634;2023-03-26T08:14:12;100145.66;;;17.78;54.01
60319;BME280;46163;52.306;5.634;2023-03-26T08:19:34;100149.94;;;17.79;54.02
60319;BME280;46163;52.306;5.634;2023-03-26T08:30:24;100157.22;;;17.74;54.08
60319;BME280;46163;52.306;5.634;2023-03-26T08:33:11;100150.22;;;17.73;54.10
60319;BME280;46163;52.306;5.634;2023-03-26T08:35:41;100156.66;;;17.72;54.02
60319;BME280;46163;52.306;5.634;2023-03-26T08:38:15;100154.53;;;17.74;54.08
60319;BME280;46163;52.306;5.634;2023-03-26T09:04:26;100157.78;;;17.86;54.45
60319;BME280;46163;52.306;5.634;2023-03-26T09:07:35;100153.22;;;17.87;54.29
60319;BME280;46163;52.306;5.634;2023-03-26T09:13:19;100152.41;;;17.86;54.48
60319;BME280;46163;52.306;5.634;2023-03-26T09:19:27;100158.06;;;17.95;54.05
60319;BME280;46163;52.306;5.634;2023-03-26T09:27:35;100157.00;;;17.96;54.06
60319;BME280;46163;52.306;5.634;2023-03-26T09:36:19;100151.88;;;17.94;53.80
60319;BME280;46163;52.306;5.634;2023-03-26T09:38:51;100153.78;;;17.94;53.66
60319;BME280;46163;52.306;5.634;2023-03-26T09:44:24;100154.84;;;17.93;53.84
60319;BME280;46163;52.306;5.634;2023-03-26T10:01:43;100169.09;;;17.88;53.56
60319;BME280;46163;52.306;5.634;2023-03-26T10:12:38;100173.38;;;17.79;53.83
60319;BME280;46163;52.306;5.634;2023-03-26T10:15:39;100177.13;;;17.78;54.22
60319;BME280;46163;52.306;5.634;2023-03-26T10:18:33;100179.81;;;17.78;54.08
60319;BME280;46163;52.306;5.634;2023-03-26T10:31:48;100187.41;;;17.81;55.96
60319;BME280;46163;52.306;5.634;2023-03-26T10:34:29;100189.00;;;17.82;55.64
60319;BME280;46163;52.306;5.634;2023-03-26T10:37:03;100190.34;;;17.85;55.60
60319;BME280;46163;52.306;5.634;2023-03-26T10:52:48;100186.84;;;17.84;55.45
60319;BME280;46163;52.306;5.634;2023-03-26T10:55:37;100194.38;;;17.87;55.54
60319;BME280;46163;52.306;5.634;2023-03-26T10:58:15;100191.69;;;17.87;55.41
60319;BME280;46163;52.306;5.634;2023-03-26T11:00:49;100203.28;;;17.88;55.28
60319;BME280;46163;52.306;5.634;2023-03-26T11:06:03;100196.53;;;17.85;55.45
60319;BME280;46163;52.306;5.634;2023-03-26T11:12:06;100213.22;;;17.87;56.06
60319;BME280;46163;52.306;5.634;2023-03-26T11:20:36;100210.53;;;17.87;55.26
60319;BME280;46163;52.306;5.634;2023-03-26T11:26:14;100221.31;;;17.87;54.94
60319;BME280;46163;52.306;5.634;2023-03-26T11:34:12;100211.66;;;17.91;55.36
60319;BME280;46163;52.306;5.634;2023-03-26T11:36:45;100224.84;;;17.93;55.78
60319;BME280;46163;52.306;5.634;2023-03-26T11:39:18;100231.84;;;17.94;55.57
60319;BME280;46163;52.306;5.634;2023-03-26T11:41:46;100219.19;;;17.94;55.67
60319;BME280;46163;52.306;5.634;2023-03-26T11:44:26;100222.69;;;17.95;55.89
60319;BME280;46163;52.306;5.634;2023-03-26T11:46:57;100227.00;;;17.96;55.81
60319;BME280;46163;52.306;5.634;2023-03-26T11:49:28;100228.59;;;17.97;55.67
60319;BME280;46163;52.306;5.634;2023-03-26T11:51:53;100219.44;;;17.98;55.69
60319;BME280;46163;52.306;5.634;2023-03-26T11:54:19;100236.72;;;18.02;55.74
60319;BME280;46163;52.306;5.634;2023-03-26T11:57:01;100226.75;;;18.02;55.99
60319;BME280;46163;52.306;5.634;2023-03-26T12:01:59;100228.09;;;18.05;55.76
60319;BME280;46163;52.306;5.634;2023-03-26T12:04:50;100234.06;;;18.07;55.86
60319;BME280;46163;52.306;5.634;2023-03-26T12:07:30;100227.84;;;18.01;55.90
60319;BME280;46163;52.306;5.634;2023-03-26T12:12:28;100233.22;;;18.06;55.87
60319;BME280;46163;52.306;5.634;2023-03-26T12:14:55;100233.75;;;18.03;55.57
60319;BME280;46163;52.306;5.634;2023-03-26T12:17:30;100240.25;;;18.07;55.69
60319;BME280;46163;52.306;5.634;2023-03-26T12:20:01;100240.25;;;18.07;55.75
60319;BME280;46163;52.306;5.634;2023-03-26T12:22:44;100251.56;;;18.10;55.66
60319;BME280;46163;52.306;5.634;2023-03-26T12:25:40;100245.09;;;18.11;55.41
60319;BME280;46163;52.306;5.634;2023-03-26T12:30:39;100252.09;;;18.12;55.77
60319;BME280;46163;52.306;5.634;2023-03-26T12:33:06;100259.09;;;18.13;55.93
60319;BME280;46163;52.306;5.634;2023-03-26T12:35:40;100257.47;;;18.12;55.78
60319;BME280;46163;52.306;5.634;2023-03-26T12:40:48;100253.72;;;18.13;55.71
60319;BME280;46163;52.306;5.634;2023-03-26T12:48:43;100269.06;;;18.12;56.54
60319;BME280;46163;52.306;5.634;2023-03-26T12:51:47;100271.47;;;18.14;56.63
60319;BME280;46163;52.306;5.634;2023-03-26T12:57:22;100278.75;;;18.13;56.50
60319;BME280;46163;52.306;5.634;2023-03-26T13:03:13;100277.41;;;18.11;55.97
60319;BME280;46163;52.306;5.634;2023-03-26T13:25:17;100292.44;;;18.01;55.63
60319;BME280;46163;52.306;5.634;2023-03-26T13:30:55;100304.81;;;17.97;55.67
60319;BME280;46163;52.306;5.634;2023-03-26T13:45:13;100314.72;;;17.87;56.23
60319;BME280;46163;52.306;5.634;2023-03-26T13:47:47;100323.06;;;17.85;56.46
60319;BME280;46163;52.306;5.634;2023-03-26T13:52:53;100324.66;;;17.81;56.46
60319;BME280;46163;52.306;5.634;2023-03-26T13:58:16;100332.97;;;17.79;56.96
60319;BME280;46163;52.306;5.634;2023-03-26T14:01:10;100323.50;;;17.72;56.87
60319;BME280;46163;52.306;5.634;2023-03-26T14:09:01;100342.09;;;17.73;56.72
60319;BME280;46163;52.306;5.634;2023-03-26T14:16:58;100352.34;;;17.76;54.28
60319;BME280;46163;52.306;5.634;2023-03-26T14:31:26;100372.78;;;17.72;53.06
60319;BME280;46163;52.306;5.634;2023-03-26T14:36:49;100385.16;;;17.73;52.35
60319;BME280;46163;52.306;5.634;2023-03-26T14:39:28;100386.25;;;17.72;52.93
60319;BME280;46163;52.306;5.634;2023-03-26T14:42:06;100384.34;;;17.73;52.58
60319;BME280;46163;52.306;5.634;2023-03-26T14:55:09;100411.28;;;17.73;52.09
60319;BME280;46163;52.306;5.634;2023-03-26T15:00:47;100419.00;;;17.69;51.61
60319;BME280;46163;52.306;5.634;2023-03-26T15:04:52;100423.06;;;17.72;52.05
60319;BME280;46163;52.306;5.634;2023-03-26T15:12:27;100439.00;;;17.73;53.33
60319;BME280;46163;52.306;5.634;2023-03-26T15:39:58;100474.72;;;17.69;52.61
60319;BME280;46163;52.306;5.634;2023-03-26T15:45:32;100479.53;;;17.67;53.10
60319;BME280;46163;52.306;5.634;2023-03-26T15:50:44;100487.81;;;17.60;52.47
60319;BME280;46163;52.306;5.634;2023-03-26T16:01:52;100515.16;;;17.47;51.41
60319;BME280;46163;52.306;5.634;2023-03-26T16:10:23;100513.72;;;17.39;51.20
60319;BME280;46163;52.306;5.634;2023-03-26T16:12:53;100536.88;;;17.40;50.76
60319;BME280;46163;52.306;5.634;2023-03-26T16:15:27;100537.13;;;17.39;50.94
60319;BME280;46163;52.306;5.634;2023-03-26T16:20:46;100553.75;;;17.36;50.59
60319;BME280;46163;52.306;5.634;2023-03-26T16:26:21;100557.50;;;17.35;51.14
60319;BME280;46163;52.306;5.634;2023-03-26T16:47:16;100594.53;;;17.49;51.53
60319;BME280;46163;52.306;5.634;2023-03-26T16:49:48;100609.16;;;17.59;51.97
60319;BME280;46163;52.306;5.634;2023-03-26T16:58:02;100626.59;;;17.73;52.59
60319;BME280;46163;52.306;5.634;2023-03-26T17:00:46;100630.13;;;17.78;52.95
60319;BME280;46163;52.306;5.634;2023-03-26T17:11:27;100667.72;;;17.95;52.73
60319;BME280;46163;52.306;5.634;2023-03-26T17:14:02;100654.78;;;17.92;52.73
60319;BME280;46163;52.306;5.634;2023-03-26T17:16:47;100680.19;;;18.01;52.75
60319;BME280;46163;52.306;5.634;2023-03-26T17:19:25;100682.34;;;18.04;52.71
60319;BME280;46163;52.306;5.634;2023-03-26T17:24:58;100694.81;;;18.11;52.85
60319;BME280;46163;52.306;5.634;2023-03-26T17:27:27;100694.28;;;18.14;52.70
60319;BME280;46163;52.306;5.634;2023-03-26T17:35:43;100708.91;;;18.18;52.75
60319;BME280;46163;52.306;5.634;2023-03-26T17:40:58;100716.16;;;18.17;53.19
60319;BME280;46163;52.306;5.634;2023-03-26T17:43:48;100728.31;;;18.20;52.90
60319;BME280;46163;52.306;5.634;2023-03-26T17:48:57;100738.78;;;18.16;51.16
60319;BME280;46163;52.306;5.634;2023-03-26T17:53:58;100733.03;;;18.07;50.34
60319;BME280;46163;52.306;5.634;2023-03-26T17:56:28;100740.22;;;18.02;50.37
60319;BME280;46163;52.306;5.634;2023-03-26T17:58:56;100742.63;;;17.98;50.55
60319;BME280;46163;52.306;5.634;2023-03-26T18:01:33;100746.34;;;17.97;50.23
60319;BME280;46163;52.306;5.634;2023-03-26T18:04:06;100752.25;;;17.94;49.17
60319;BME280;46163;52.306;5.634;2023-03-26T18:09:50;100764.34;;;17.92;49.24
60319;BME280;46163;52.306;5.634;2023-03-26T18:12:42;100777.72;;;17.87;49.13
60319;BME280;46163;52.306;5.634;2023-03-26T18:18:13;100787.00;;;17.74;49.44
60319;BME280;46163;52.306;5.634;2023-03-26T18:20:44;100784.56;;;17.72;49.56
60319;BME280;46163;52.306;5.634;2023-03-26T18:26:11;100806.66;;;17.74;49.27
60319;BME280;46163;52.306;5.634;2023-03-26T18:28:43;100814.19;;;17.72;49.35
60319;BME280;46163;52.306;5.634;2023-03-26T18:31:17;100808.13;;;17.65;48.68
60319;BME280;46163;52.306;5.634;2023-03-26T18:33:46;100815.13;;;17.66;49.22
60319;BME280;46163;52.306;5.634;2023-03-26T18:36:14;100818.72;;;17.72;48.76
60319;BME280;46163;52.306;5.634;2023-03-26T18:38:40;100825.75;;;17.73;48.53
60319;BME280;46163;52.306;5.634;2023-03-26T18:41:31;100840.25;;;17.72;48.83
60319;BME280;46163;52.306;5.634;2023-03-26T18:44:03;100841.66;;;17.74;49.56
60319;BME280;46163;52.306;5.634;2023-03-26T18:46:30;100853.53;;;17.78;50.06
60319;BME280;46163;52.306;5.634;2023-03-26T18:48:57;100857.63;;;17.81;50.31
60319;BME280;46163;52.306;5.634;2023-03-26T18:51:25;100866.81;;;17.85;50.44
60319;BME280;46163;52.306;5.634;2023-03-26T18:53:55;100870.34;;;17.86;50.72
60319;BME280;46163;52.306;5.634;2023-03-26T18:56:35;100887.38;;;17.91;50.58
60319;BME280;46163;52.306;5.634;2023-03-26T18:59:04;100879.88;;;17.93;50.63
60319;BME280;46163;52.306;5.634;2023-03-26T19:01:31;100887.69;;;17.95;50.82
60319;BME280;46163;52.306;5.634;2023-03-26T19:04:03;100895.50;;;17.96;50.94
60319;BME280;46163;52.306;5.634;2023-03-26T19:06:31;100901.25;;;18.00;50.84
60319;BME280;46163;52.306;5.634;2023-03-26T19:09:03;100903.69;;;18.01;50.69
60319;BME280;46163;52.306;5.634;2023-03-26T19:11:37;100900.09;;;17.96;50.80
60319;BME280;46163;52.306;5.634;2023-03-26T19:14:21;100905.88;;;18.04;50.68
60319;BME280;46163;52.306;5.634;2023-03-26T19:16:51;100912.56;;;18.02;50.70
60319;BME280;46163;52.306;5.634;2023-03-26T19:19:24;100915.00;;;18.03;51.07
60319;BME280;46163;52.306;5.634;2023-03-26T19:21:50;100912.25;;;17.98;50.84
60319;BME280;46163;52.306;5.634;2023-03-26T19:24:18;100920.91;;;18.00;50.89
60319;BME280;46163;52.306;5.634;2023-03-26T19:26:46;100932.16;;;17.97;50.96
60319;BME280;46163;52.306;5.634;2023-03-26T19:29:14;100935.34;;;17.94;50.70
60319;BME280;46163;52.306;5.634;2023-03-26T19:31:42;100946.13;;;17.94;50.98